Time;durP1;ratioP1;P1;durP2;ratioP2;P2;SDS_P1;SDS_P2;PMS_P1;PMS_P2;Temp;Humidity;BMP_temperature;BMP_pressure;BME280_temperature;BME280_humidity;BME280_pressure;Samples;Min_cycle;Max_cycle;Signal;HPM_P1;HPM_P2
2021/05/03 00:00:54;;;;;;;15.91;10.56;;;;;;;;;;351217;149;857950;-62
2021/05/03 00:01:56;;;;;;;18.71;11.95;;;;;;;;;;354518;151;865225;-61
2021/05/03 00:02:57;;;;;;;15.17;10.60;;;;;;;;;;351869;148;866258;-61
2021/05/03 00:03:59;;;;;;;20.66;11.50;;;;;;;;;;354908;148;866659;-62
2021/05/03 00:05:00;;;;;;;16.86;11.40;;;;;;;;;;352655;151;858599;-61
2021/05/03 00:06:02;;;;;;;20.73;12.28;;;;;;;;;;352346;151;857518;-62
2021/05/03 00:07:04;;;;;;;23.29;12.53;;;;;;;;;;354761;151;857433;-62
2021/05/03 00:08:05;;;;;;;19.42;12.46;;;;;;;;;;352366;151;861694;-62
2021/05/03 00:09:07;;;;;;;16.84;11.37;;;;;;;;;;359915;148;858834;-62
2021/05/03 00:10:10;;;;;;;18.05;12.19;;;;;;;;;;360938;148;858542;-62
2021/05/03 00:11:12;;;;;;;18.47;11.61;;;;;;;;;;361519;147;865310;-61
2021/05/03 00:12:13;;;;;;;21.22;12.40;;;;;;;;;;358668;148;858016;-62
2021/05/03 00:13:15;;;;;;;17.39;12.15;;;;;;;;;;358957;149;864841;-62
2021/05/03 00:14:16;;;;;;;18.59;11.71;;;;;;;;;;354552;148;857288;-62
2021/05/03 00:15:21;;;;;;;17.59;11.61;;;;;;;;;;354562;151;857375;-62
2021/05/03 00:16:22;;;;;;;17.78;11.84;;;;;;;;;;353645;148;860089;-61
2021/05/03 00:17:24;;;;;;;16.26;11.79;;;;;;;;;;353387;150;864653;-62
2021/05/03 00:18:25;;;;;;;18.10;11.74;;;;;;;;;;358868;148;857304;-62
2021/05/03 00:19:27;;;;;;;19.38;10.77;;;;;;;;;;358008;148;859824;-62
2021/05/03 00:20:29;;;;;;;14.23;10.89;;;;;;;;;;360797;146;866924;-62
2021/05/03 00:21:31;;;;;;;16.02;9.40;;;;;;;;;;362423;148;857533;-61
2021/05/03 00:22:32;;;;;;;21.72;11.59;;;;;;;;;;360156;145;859504;-62
2021/05/03 00:23:34;;;;;;;17.46;11.66;;;;;;;;;;361898;147;860188;-61
2021/05/03 00:24:35;;;;;;;17.57;11.05;;;;;;;;;;361883;148;859056;-61
2021/05/03 00:25:37;;;;;;;18.99;12.55;;;;;;;;;;363478;145;858274;-62
2021/05/03 00:26:39;;;;;;;17.38;11.59;;;;;;;;;;360999;147;857738;-61
2021/05/03 00:27:41;;;;;;;18.00;12.49;;;;;;;;;;363200;148;857945;-61
2021/05/03 00:28:42;;;;;;;18.09;11.31;;;;;;;;;;361875;145;859145;-61
2021/05/03 00:29:44;;;;;;;17.13;11.39;;;;;;;;;;362411;148;859014;-61
2021/05/03 00:30:46;;;;;;;17.08;10.63;;;;;;;;;;360421;145;857262;-61
2021/05/03 00:31:47;;;;;;;17.94;11.26;;;;;;;;;;356380;148;857348;-61
2021/05/03 00:32:49;;;;;;;16.55;11.44;;;;;;;;;;364387;146;859175;-60
2021/05/03 00:33:51;;;;;;;17.94;11.69;;;;;;;;;;363480;146;858168;-61
2021/05/03 00:34:52;;;;;;;18.64;11.21;;;;;;;;;;362972;146;860535;-61
2021/05/03 00:35:54;;;;;;;15.85;10.20;;;;;;;;;;362741;148;859170;-61
2021/05/03 00:36:55;;;;;;;20.13;10.01;;;;;;;;;;362435;146;858500;-61
2021/05/03 00:37:57;;;;;;;19.79;11.16;;;;;;;;;;360848;147;864720;-61
2021/05/03 00:38:58;;;;;;;21.48;10.97;;;;;;;;;;362418;148;864802;-61
2021/05/03 00:40:00;;;;;;;17.44;10.34;;;;;;;;;;360735;146;857532;-61
2021/05/03 00:41:01;;;;;;;17.22;10.73;;;;;;;;;;361486;148;857910;-60
2021/05/03 00:42:03;;;;;;;12.78;8.22;;;;;;;;;;356480;145;859136;-61
2021/05/03 00:43:05;;;;;;;17.17;9.11;;;;;;;;;;355703;149;865962;-61
2021/05/03 00:44:06;;;;;;;20.89;9.66;;;;;;;;;;352551;148;865036;-61
2021/05/03 00:45:10;;;;;;;16.72;9.49;;;;;;;;;;354193;149;858864;-61
2021/05/03 00:46:17;;;;;;;17.81;9.27;;;;;;;;;;358612;147;858113;-61
2021/05/03 00:47:15;;;;;;;11.83;8.66;;;;;;;;;;362365;148;857225;-61
2021/05/03 00:48:17;;;;;;;15.84;8.76;;;;;;;;;;361823;145;857227;-61
2021/05/03 00:49:18;;;;;;;13.90;7.60;;;;;;;;;;362897;148;858459;-61
2021/05/03 00:50:21;;;;;;;16.00;7.87;;;;;;;;;;360558;148;859631;-61
2021/05/03 00:51:23;;;;;;;11.61;7.70;;;;;;;;;;361341;145;858853;-61
2021/05/03 00:52:25;;;;;;;11.11;7.18;;;;;;;;;;362180;148;866031;-61
2021/05/03 00:53:26;;;;;;;11.21;5.96;;;;;;;;;;362870;147;866232;-61
2021/05/03 00:54:28;;;;;;;9.08;6.88;;;;;;;;;;360500;147;865119;-61
2021/05/03 00:55:30;;;;;;;8.29;5.71;;;;;;;;;;356818;147;866826;-61
2021/05/03 00:56:33;;;;;;;8.68;6.29;;;;;;;;;;359675;146;858382;-61
2021/05/03 00:57:35;;;;;;;9.03;5.69;;;;;;;;;;359722;149;856532;-62
2021/05/03 00:58:36;;;;;;;7.25;5.11;;;;;;;;;;363198;148;856161;-61
2021/05/03 00:59:38;;;;;;;8.39;5.46;;;;;;;;;;356025;148;857363;-61
2021/05/03 01:00:40;;;;;;;10.88;5.74;;;;;;;;;;350595;148;856569;-61
2021/05/03 01:01:41;;;;;;;7.99;4.84;;;;;;;;;;363015;147;863749;-61
2021/05/03 01:02:43;;;;;;;9.34;4.96;;;;;;;;;;362375;145;856327;-61
2021/05/03 01:03:44;;;;;;;4.76;3.06;;;;;;;;;;363445;148;863673;-61
2021/05/03 01:04:46;;;;;;;5.51;4.24;;;;;;;;;;363060;145;856283;-61
2021/05/03 01:05:48;;;;;;;6.69;4.34;;;;;;;;;;362045;147;856182;-61
2021/05/03 01:06:49;;;;;;;8.88;4.08;;;;;;;;;;363073;148;856629;-61
2021/05/03 01:07:51;;;;;;;7.94;4.47;;;;;;;;;;362523;147;856101;-61
2021/05/03 01:08:52;;;;;;;6.39;3.92;;;;;;;;;;363441;148;856153;-62
2021/05/03 01:09:54;;;;;;;5.99;3.82;;;;;;;;;;363358;145;856266;-61
2021/05/03 01:12:54;;;;;;;6.65;3.17;;;;;;;13.82;64.90;98715.89;371125;142;875373;-62
2021/05/03 01:13:56;;;;;;;5.19;3.40;;;;;;;13.68;64.56;98720.78;362765;147;856998;-61
2021/05/03 01:14:58;;;;;;;5.28;3.30;;;;;;;13.67;64.95;98719.95;364912;147;860800;-62
2021/05/03 01:16:01;;;;;;;4.96;3.21;;;;;;;;;;362899;145;865113;-61
2021/05/03 01:17:03;;;;;;;4.15;2.84;;;;;;;;;;360081;147;857823;-62
2021/05/03 01:18:05;;;;;;;4.39;2.79;;;;;;;;;;362255;145;864810;-62
2021/05/03 01:19:06;;;;;;;7.06;3.07;;;;;;;;;;363285;145;857643;-62
2021/05/03 01:20:10;;;;;;;3.78;2.89;;;;;;;;;;368357;145;866049;-62
2021/05/03 01:21:12;;;;;;;6.14;2.88;;;;;;;;;;362097;146;861042;-61
2021/05/03 01:22:14;;;;;;;4.45;2.97;;;;;;;;;;356822;150;860352;-61
2021/05/03 01:23:15;;;;;;;4.87;3.14;;;;;;;;;;356037;145;857300;-62
2021/05/03 01:24:17;;;;;;;3.66;2.96;;;;;;;;;;363083;145;857336;-61
2021/05/03 01:25:19;;;;;;;5.03;3.68;;;;;;;;;;363112;145;857314;-61
2021/05/03 01:26:21;;;;;;;3.70;3.05;;;;;;;;;;362055;146;865020;-61
2021/05/03 01:27:22;;;;;;;5.05;2.94;;;;;;;;;;363869;146;857342;-61
2021/05/03 01:28:24;;;;;;;5.56;3.18;;;;;;;;;;359811;147;858288;-61
2021/05/03 01:29:26;;;;;;;3.86;2.79;;;;;;;;;;363674;145;859436;-61
2021/05/03 01:30:33;;;;;;;5.44;3.14;;;;;;;;;;365394;147;859321;-61
2021/05/03 01:31:37;;;;;;;6.14;3.21;;;;;;;;;;357801;149;866498;-61
2021/05/03 01:32:38;;;;;;;6.11;3.09;;;;;;;;;;356001;148;857850;-61
2021/05/03 01:33:40;;;;;;;5.16;2.92;;;;;;;;;;354939;148;863811;-61
2021/05/03 01:34:42;;;;;;;5.37;3.26;;;;;;;;;;356332;149;865688;-61
2021/05/03 01:35:45;;;;;;;3.26;2.58;;;;;;;;;;356404;149;858946;-61
2021/05/03 01:36:48;;;;;;;3.45;2.68;;;;;;;;;;353040;150;859373;-61
2021/05/03 01:37:51;;;;;;;7.11;2.70;;;;;;;;;;355644;148;857730;-61
2021/05/03 01:38:53;;;;;;;5.54;2.99;;;;;;;;;;356964;149;857576;-62
2021/05/03 01:39:54;;;;;;;6.91;2.74;;;;;;;;;;358060;147;865181;-61
2021/05/03 01:40:56;;;;;;;4.85;2.87;;;;;;;;;;358264;148;857519;-61
2021/05/03 01:41:57;;;;;;;3.89;2.56;;;;;;;;;;359189;150;864969;-61
2021/05/03 01:43:13;;;;;;;4.02;2.71;;;;;;;;;;357990;148;857871;-61
2021/05/03 01:44:16;;;;;;;2.99;2.32;;;;;;;;;;349229;151;864910;-61
2021/05/03 01:45:22;;;;;;;7.77;3.01;;;;;;;;;;353048;150;857550;-61
2021/05/03 01:46:26;;;;;;;4.72;2.45;;;;;;;;;;356624;148;857848;-61
2021/05/03 01:47:27;;;;;;;4.74;2.71;;;;;;;;;;359194;150;859120;-62
2021/05/03 01:48:29;;;;;;;3.52;2.48;;;;;;;;;;358763;148;857179;-61
2021/05/03 01:49:31;;;;;;;2.84;2.22;;;;;;;;;;360177;148;865388;-61
2021/05/03 01:50:34;;;;;;;7.21;3.02;;;;;;;;;;362494;148;857278;-61
2021/05/03 01:51:37;;;;;;;3.46;2.13;;;;;;;;;;358175;148;858957;-61
2021/05/03 01:52:38;;;;;;;2.89;2.37;;;;;;;;;;356483;148;857884;-61
2021/05/03 01:53:40;;;;;;;3.36;2.69;;;;;;;;;;356094;150;857380;-61
2021/05/03 01:54:41;;;;;;;2.82;2.16;;;;;;;;;;356009;148;857287;-61
2021/05/03 01:55:44;;;;;;;3.67;2.76;;;;;;;;;;356106;148;859046;-61
2021/05/03 02:13:27;;;;;;;4.87;2.20;;;;;;;12.54;61.82;98744.92;373193;142;881902;-62
2021/05/03 02:14:29;;;;;;;3.47;2.23;;;;;;;12.47;61.82;98743.44;364631;146;857745;-62
2021/05/03 02:15:32;;;;;;;4.14;2.27;;;;;;;12.44;61.64;98752.20;364824;144;858637;-61
2021/05/03 02:16:34;;;;;;;2.88;2.36;;;;;;;12.47;61.76;98743.44;362970;144;865417;-62
2021/05/03 02:17:36;;;;;;;2.77;2.15;;;;;;;12.40;61.28;98748.84;361635;145;857238;-62
2021/05/03 02:18:38;;;;;;;3.64;1.79;;;;;;;12.43;61.48;98742.72;365430;147;865885;-62
2021/05/03 02:19:40;;;;;;;4.05;2.18;;;;;;;12.46;61.47;98754.73;364752;144;866617;-61
2021/05/03 02:20:42;;;;;;;3.16;2.22;;;;;;;12.27;61.00;98748.44;362503;145;857292;-62
2021/05/03 02:21:44;;;;;;;2.79;2.19;;;;;;;;;;362264;147;857247;-62
2021/05/03 02:22:45;;;;;;;4.46;2.09;;;;;;;;;;362463;145;857710;-62
2021/05/03 02:23:47;;;;;;;6.58;2.09;;;;;;;;;;365871;145;864834;-61
2021/05/03 02:24:49;;;;;;;2.36;1.24;;;;;;;;;;364335;147;857254;-61
2021/05/03 02:25:50;;;;;;;2.09;1.92;;;;;;;;;;363049;145;867333;-61
2021/05/03 02:26:52;;;;;;;2.67;1.73;;;;;;;;;;361531;144;858124;-61
2021/05/03 02:27:54;;;;;;;4.48;1.76;;;;;;;;;;362941;145;858900;-61
2021/05/03 02:28:55;;;;;;;3.38;1.90;;;;;;;;;;364392;147;864683;-61
2021/05/03 02:29:57;;;;;;;2.19;1.74;;;;;;;;;;365239;147;865048;-61
2021/05/03 02:30:59;;;;;;;3.99;1.84;;;;;;;;;;362592;145;857412;-62
2021/05/03 02:32:00;;;;;;;2.15;1.44;;;;;;;;;;362316;148;864903;-62
2021/05/03 02:33:02;;;;;;;3.43;1.70;;;;;;;;;;362288;144;856626;-61
2021/05/03 02:34:03;;;;;;;4.71;1.59;;;;;;;;;;363137;145;865813;-61
2021/05/03 02:35:06;;;;;;;3.84;1.77;;;;;;;;;;365250;146;866455;-61
2021/05/03 02:36:08;;;;;;;2.57;1.19;;;;;;;;;;362788;146;858011;-61
2021/05/03 02:37:10;;;;;;;2.31;1.61;;;;;;;;;;362483;146;859088;-61
2021/05/03 02:38:12;;;;;;;2.10;1.61;;;;;;;;;;362636;146;865664;-60
2021/05/03 02:39:14;;;;;;;4.03;1.50;;;;;;;;;;364240;144;857742;-61
2021/05/03 02:40:16;;;;;;;3.48;1.69;;;;;;;;;;364963;146;866735;-61
2021/05/03 02:41:18;;;;;;;3.49;2.02;;;;;;;;;;367622;144;858410;-61
2021/05/03 02:42:20;;;;;;;3.11;1.69;;;;;;;;;;363226;145;866411;-60
2021/05/03 02:43:21;;;;;;;2.33;1.69;;;;;;;;;;362479;146;858923;-61
2021/05/03 02:44:23;;;;;;;2.91;1.97;;;;;;;;;;362448;144;859676;-60
2021/05/03 02:45:25;;;;;;;3.31;1.41;;;;;;;;;;363169;146;857923;-60
2021/05/03 02:46:28;;;;;;;4.92;1.60;;;;;;;;;;348958;149;857251;-60
2021/05/03 02:47:30;;;;;;;1.96;1.76;;;;;;;;;;351607;151;866552;-61
2021/05/03 02:48:32;;;;;;;1.87;1.50;;;;;;;;;;365701;146;860575;-62
2021/05/03 02:49:34;;;;;;;2.09;1.76;;;;;;;;;;364360;145;857953;-61
2021/05/03 02:50:37;;;;;;;2.69;1.54;;;;;;;;;;365863;145;857285;-61
2021/05/03 02:51:39;;;;;;;4.24;2.00;;;;;;;;;;364931;145;859632;-60
2021/05/03 02:52:41;;;;;;;2.93;1.17;;;;;;;;;;363932;144;864931;-60
2021/05/03 02:53:43;;;;;;;2.04;1.43;;;;;;;;;;362408;147;857271;-60
2021/05/03 02:54:44;;;;;;;3.30;1.70;;;;;;;;;;363164;145;857272;-61
2021/05/03 02:55:46;;;;;;;4.29;1.56;;;;;;;;;;363021;144;857189;-61
2021/05/03 02:56:48;;;;;;;2.42;1.72;;;;;;;;;;363822;146;857454;-61
2021/05/03 02:57:49;;;;;;;2.89;1.71;;;;;;;;;;364951;144;866791;-61
2021/05/03 02:58:51;;;;;;;2.21;1.78;;;;;;;;;;364850;146;858650;-61
2021/05/03 02:59:52;;;;;;;5.39;2.03;;;;;;;;;;366025;146;857815;-61
2021/05/03 03:00:54;;;;;;;5.25;1.91;;;;;;;;;;364305;144;859235;-62
2021/05/03 03:01:56;;;;;;;6.79;2.03;;;;;;;;;;362546;146;865744;-61
2021/05/03 03:02:58;;;;;;;2.27;1.69;;;;;;;;;;364022;144;866107;-61
2021/05/03 03:03:59;;;;;;;2.44;1.50;;;;;;;;;;363437;145;858036;-61
2021/05/03 03:05:01;;;;;;;7.35;2.44;;;;;;;;;;362911;146;857902;-61
2021/05/03 03:06:03;;;;;;;2.68;1.61;;;;;;;;;;363470;144;857305;-61
2021/05/03 03:07:04;;;;;;;7.44;2.11;;;;;;;;;;363182;146;857371;-61
2021/05/03 03:08:06;;;;;;;2.34;1.84;;;;;;;;;;363036;146;865748;-61
2021/05/03 03:09:08;;;;;;;2.86;2.19;;;;;;;;;;363136;145;857968;-61
2021/05/03 03:10:10;;;;;;;3.87;1.72;;;;;;;;;;362456;145;859064;-60
2021/05/03 03:11:12;;;;;;;3.19;2.07;;;;;;;;;;366894;146;858624;-61
2021/05/03 03:12:13;;;;;;;4.36;1.94;;;;;;;;;;363715;145;858301;-61
2021/05/03 03:13:15;;;;;;;2.76;2.09;;;;;;;;;;363442;146;857203;-61
2021/05/03 03:14:16;;;;;;;3.73;2.00;;;;;;;;;;362773;146;858834;-61
2021/05/03 03:15:19;;;;;;;4.18;1.83;;;;;;;;;;362794;144;857777;-61
2021/05/03 03:16:24;;;;;;;3.43;2.13;;;;;;;;;;366129;146;857238;-61
2021/05/03 03:17:25;;;;;;;2.39;1.97;;;;;;;;;;365033;145;864823;-60
2021/05/03 03:18:27;;;;;;;5.48;2.51;;;;;;;;;;362627;145;857234;-60
2021/05/03 03:19:28;;;;;;;5.04;2.01;;;;;;;;;;352374;151;857639;-60
2021/05/03 03:20:31;;;;;;;2.66;1.81;;;;;;;;;;362443;145;859036;-61
2021/05/03 03:21:32;;;;;;;2.90;1.84;;;;;;;;;;363127;146;857552;-62
2021/05/03 03:22:34;;;;;;;5.31;1.94;;;;;;;;;;363076;146;864561;-61
2021/05/03 03:23:36;;;;;;;3.40;1.89;;;;;;;;;;363893;144;857318;-61
2021/05/03 03:24:37;;;;;;;6.00;2.34;;;;;;;;;;362658;148;857340;-60
2021/05/03 03:25:39;;;;;;;4.66;1.89;;;;;;;;;;362486;146;857285;-61
2021/05/03 03:26:41;;;;;;;2.55;1.76;;;;;;;;;;364577;144;859073;-61
2021/05/03 03:33:06;;;;;;;4.08;2.99;;;;;;;10.52;58.77;98901.17;404407;130;858730;-60
2021/05/03 03:34:08;;;;;;;2.40;1.93;;;;;;;10.52;58.73;98898.59;395264;135;857161;-61
2021/05/03 03:35:14;;;;;;;2.79;1.97;;;;;;;10.49;58.62;98902.12;394304;135;858712;-61
2021/05/03 03:36:16;;;;;;;2.77;2.02;;;;;;;10.51;58.43;98902.93;394010;135;866393;-61
2021/05/03 03:37:18;;;;;;;4.46;1.97;;;;;;;10.58;58.78;98895.02;394744;134;858832;-61
2021/05/03 03:38:20;;;;;;;5.00;2.17;;;;;;;10.35;58.82;98904.99;395286;135;865584;-61
2021/05/03 03:39:21;;;;;;;6.51;2.31;;;;;;;10.45;58.75;98900.49;395390;134;866771;-61
2021/05/03 03:40:25;;;;;;;2.55;1.48;;;;;;;10.42;58.59;98897.11;390802;136;865906;-62
2021/05/03 03:41:27;;;;;;;2.45;1.99;;;;;;;10.46;58.10;98904.78;394286;135;857374;-61
2021/05/03 03:42:28;;;;;;;5.66;1.68;;;;;;;10.08;58.29;98896.99;397492;135;865413;-61
2021/05/03 03:43:30;;;;;;;2.64;1.83;;;;;;;10.32;58.69;98907.66;397475;135;865077;-61
2021/05/03 03:44:32;;;;;;;4.59;1.91;;;;;;;10.43;58.28;98899.68;395635;135;865563;-61
2021/05/03 03:45:34;;;;;;;1.49;1.35;;;;;;;10.49;58.21;98899.53;397274;135;857463;-61
2021/05/03 03:46:36;;;;;;;2.73;2.37;;;;;;;10.38;57.68;98910.09;395864;135;864931;-61
2021/05/03 03:47:38;;;;;;;3.64;1.91;;;;;;;10.49;57.76;98909.02;395124;135;857252;-61
2021/05/03 03:48:40;;;;;;;2.83;1.89;;;;;;;10.56;57.75;98909.73;395665;135;864665;-61
2021/05/03 03:49:41;;;;;;;3.89;1.83;;;;;;;10.49;57.28;98921.95;395411;135;857691;-62
2021/05/03 03:50:44;;;;;;;2.57;1.77;;;;;;;10.29;58.28;98917.23;395038;135;857255;-62
2021/05/03 03:51:45;;;;;;;2.15;1.86;;;;;;;;;;382602;136;858833;-61
2021/05/03 03:52:47;;;;;;;2.53;2.02;;;;;;;;;;381246;138;857343;-62
2021/05/03 03:53:49;;;;;;;2.57;1.88;;;;;;;;;;386718;136;859732;-62
2021/05/03 03:54:51;;;;;;;3.44;1.58;;;;;;;;;;391922;135;858239;-61
2021/05/03 03:55:52;;;;;;;2.30;1.77;;;;;;;;;;386617;136;857324;-62
2021/05/03 03:56:54;;;;;;;1.93;1.11;;;;;;;;;;377872;139;857694;-60
2021/05/03 03:57:56;;;;;;;1.51;0.94;;;;;;;;;;379116;141;859250;-62
2021/05/03 03:58:57;;;;;;;4.92;1.96;;;;;;;;;;384337;138;865115;-61
2021/05/03 03:59:59;;;;;;;3.57;1.49;;;;;;;;;;383594;136;857411;-61
2021/05/03 04:01:01;;;;;;;5.13;2.29;;;;;;;;;;381306;136;864697;-61
2021/05/03 04:02:03;;;;;;;2.16;1.87;;;;;;;;;;387246;136;857412;-61
2021/05/03 04:03:06;;;;;;;2.36;2.04;;;;;;;;;;372941;141;857504;-61
2021/05/03 04:04:15;;;;;;;2.04;1.84;;;;;;;;;;374816;139;857783;-62
2021/05/03 04:05:19;;;;;;;4.86;2.33;;;;;;;;;;382859;136;858853;-62
2021/05/03 04:07:28;;;;;;;3.41;1.76;;;;;;;;;;382238;136;857293;-62
2021/05/03 04:08:24;;;;;;;4.36;1.51;;;;;;;;;;382033;136;865711;-62
2021/05/03 04:12:57;;;;;;;3.45;1.59;;;;;;;;;;381608;138;857762;-62
2021/05/03 04:24:20;;;;;;;1.84;1.43;;;;;;;;;;368365;139;857365;-62
2021/05/03 04:25:21;;;;;;;9.77;1.61;;;;;;;;;;387826;136;864820;-61
2021/05/03 04:26:22;;;;;;;1.76;1.21;;;;;;;;;;384921;136;857355;-61
2021/05/03 04:27:23;;;;;;;2.01;1.35;;;;;;;;;;382617;136;858929;-61
2021/05/03 04:28:25;;;;;;;2.12;1.04;;;;;;;;;;384877;136;857294;-62
2021/05/03 04:29:26;;;;;;;1.04;0.94;;;;;;;;;;375725;141;858951;-61
2021/05/03 04:30:30;;;;;;;1.52;1.11;;;;;;;;;;376353;139;857807;-62
2021/05/03 04:31:31;;;;;;;1.10;0.87;;;;;;;;;;386966;139;857255;-62
2021/05/03 04:32:33;;;;;;;4.62;1.06;;;;;;;;;;381688;139;864838;-62
2021/05/03 04:33:34;;;;;;;2.37;0.90;;;;;;;;;;387595;136;857715;-59
2021/05/03 04:34:36;;;;;;;1.39;0.65;;;;;;;;;;381327;139;857171;-59
2021/05/03 04:35:37;;;;;;;1.19;0.87;;;;;;;;;;382384;138;857212;-60
2021/05/03 04:36:40;;;;;;;2.50;1.29;;;;;;;;;;375204;141;857300;-59
2021/05/03 04:37:41;;;;;;;5.87;1.11;;;;;;;;;;381741;141;857249;-60
2021/05/03 04:38:43;;;;;;;1.00;0.74;;;;;;;;;;386051;138;866547;-60
2021/05/03 04:39:44;;;;;;;3.89;1.09;;;;;;;;;;383411;139;858987;-60
2021/05/03 04:40:48;;;;;;;1.24;1.00;;;;;;;;;;377267;141;858515;-60
2021/05/03 04:41:49;;;;;;;2.12;0.84;;;;;;;;;;385408;138;857820;-59
2021/05/03 04:42:51;;;;;;;1.99;1.00;;;;;;;;;;376817;141;860864;-60
2021/05/03 04:43:52;;;;;;;1.97;0.89;;;;;;;;;;378691;139;857389;-60
2021/05/03 04:44:54;;;;;;;3.49;1.01;;;;;;;;;;385244;138;866710;-59
2021/05/03 04:45:55;;;;;;;1.85;0.95;;;;;;;;;;385765;139;859181;-60
2021/05/03 04:46:57;;;;;;;5.02;0.88;;;;;;;;;;385815;138;859058;-60
2021/05/03 04:47:59;;;;;;;1.70;0.86;;;;;;;;;;385335;136;866009;-60
2021/05/03 04:49:00;;;;;;;1.47;0.94;;;;;;;;;;382569;136;859556;-60
2021/05/03 04:50:02;;;;;;;1.34;0.71;;;;;;;;;;383403;138;856725;-60
2021/05/03 04:51:04;;;;;;;1.43;0.85;;;;;;;;;;387185;136;865039;-60
2021/05/03 04:52:06;;;;;;;2.03;0.69;;;;;;;;;;381631;139;857628;-60
2021/05/03 04:53:07;;;;;;;1.51;0.84;;;;;;;;;;384970;138;857847;-60
2021/05/03 04:54:09;;;;;;;2.55;0.88;;;;;;;;;;384150;140;864857;-60
2021/05/03 04:55:11;;;;;;;2.18;1.19;;;;;;;;;;383679;136;857211;-60
2021/05/03 04:56:13;;;;;;;2.62;0.96;;;;;;;;;;383808;138;857186;-61
2021/05/03 04:57:14;;;;;;;2.12;0.88;;;;;;;;;;381941;136;857208;-60
2021/05/03 04:58:16;;;;;;;1.58;0.81;;;;;;;;;;382567;138;858896;-60
2021/05/03 04:59:17;;;;;;;1.55;0.79;;;;;;;;;;386705;136;859800;-60
2021/05/03 05:00:21;;;;;;;1.42;0.97;;;;;;;;;;391382;136;866799;-60
2021/05/03 05:01:22;;;;;;;1.26;0.75;;;;;;;;;;376593;139;857843;-62
2021/05/03 05:02:24;;;;;;;2.51;0.90;;;;;;;;;;375502;141;859581;-61
2021/05/03 05:03:25;;;;;;;1.57;0.90;;;;;;;;;;382766;136;864859;-62
2021/05/03 05:04:27;;;;;;;2.09;1.06;;;;;;;;;;385100;136;857212;-61
2021/05/03 05:05:29;;;;;;;1.17;0.82;;;;;;;;;;384161;138;857165;-62
2021/05/03 05:06:32;;;;;;;2.17;1.00;;;;;;;;;;383595;138;857232;-62
2021/05/03 05:07:33;;;;;;;1.87;0.89;;;;;;;;;;384695;138;857810;-62
2021/05/03 05:08:35;;;;;;;1.55;0.73;;;;;;;;;;392072;136;857721;-62
2021/05/03 05:09:37;;;;;;;1.26;0.81;;;;;;;;;;385369;136;866656;-61
2021/05/03 05:10:40;;;;;;;1.50;0.73;;;;;;;;;;377890;139;866698;-61
2021/05/03 05:11:42;;;;;;;1.82;0.91;;;;;;;;;;383073;136;857754;-59
2021/05/03 05:12:43;;;;;;;2.86;0.89;;;;;;;;;;382918;136;863364;-59
2021/05/03 05:13:45;;;;;;;2.77;0.89;;;;;;;;;;377861;139;859299;-60
2021/05/03 05:14:46;;;;;;;2.54;0.94;;;;;;;;;;382344;136;864897;-59
2021/05/03 05:15:48;;;;;;;3.09;0.96;;;;;;;;;;383948;138;857233;-59
2021/05/03 05:16:51;;;;;;;0.95;0.68;;;;;;;;;;376120;141;857268;-61
2021/05/03 05:17:53;;;;;;;1.24;0.80;;;;;;;;;;385077;136;857404;-61
2021/05/03 05:18:54;;;;;;;2.75;1.35;;;;;;;;;;384030;136;857594;-60
2021/05/03 05:19:56;;;;;;;1.61;0.86;;;;;;;;;;385457;136;864975;-60
2021/05/03 05:20:58;;;;;;;1.76;0.91;;;;;;;;;;382606;138;860649;-60
2021/05/03 05:22:00;;;;;;;1.37;0.70;;;;;;;;;;386177;136;859265;-59
2021/05/03 05:23:05;;;;;;;3.55;0.80;;;;;;;;;;384933;137;859076;-60
2021/05/03 05:24:07;;;;;;;2.04;0.87;;;;;;;;;;382199;136;858244;-60
2021/05/03 05:25:09;;;;;;;1.66;1.01;;;;;;;;;;385029;136;857627;-61
2021/05/03 05:26:12;;;;;;;2.46;0.89;;;;;;;;;;387368;136;858628;-61
2021/05/03 05:27:13;;;;;;;1.17;0.71;;;;;;;;;;385672;136;858711;-61
2021/05/03 05:28:15;;;;;;;1.54;0.86;;;;;;;;;;377501;139;858641;-60
2021/05/03 05:29:17;;;;;;;2.91;0.70;;;;;;;;;;386324;138;857848;-61
2021/05/03 05:30:21;;;;;;;2.07;0.73;;;;;;;;;;386525;136;857283;-60
2021/05/03 05:31:22;;;;;;;1.39;0.80;;;;;;;;;;383597;136;865792;-60
2021/05/03 05:32:24;;;;;;;1.34;0.89;;;;;;;;;;388787;136;857719;-61
2021/05/03 05:33:25;;;;;;;2.37;0.84;;;;;;;;;;386768;136;864860;-61
2021/05/03 05:34:27;;;;;;;2.32;0.79;;;;;;;;;;375776;139;858388;-61
2021/05/03 05:35:29;;;;;;;0.89;0.58;;;;;;;;;;381615;136;865925;-60
2021/05/03 05:36:31;;;;;;;3.89;0.80;;;;;;;;;;383795;136;857894;-62
2021/05/03 05:37:32;;;;;;;2.82;0.89;;;;;;;;;;387339;135;857656;-59
2021/05/03 05:38:35;;;;;;;1.26;0.74;;;;;;;;;;388514;137;860541;-61
2021/05/03 05:39:37;;;;;;;1.49;0.68;;;;;;;;;;385302;136;857355;-62
2021/05/03 05:40:40;;;;;;;1.65;0.89;;;;;;;;;;385229;138;857382;-61
2021/05/03 05:41:41;;;;;;;1.61;0.61;;;;;;;;;;386704;136;858163;-61
2021/05/03 05:42:43;;;;;;;1.81;0.89;;;;;;;;;;385462;136;866562;-62
2021/05/03 05:43:45;;;;;;;2.40;0.74;;;;;;;;;;382741;140;858896;-61
2021/05/03 05:44:47;;;;;;;0.73;0.59;;;;;;;;;;385949;136;865348;-61
2021/05/03 05:45:49;;;;;;;1.08;0.70;;;;;;;;;;386178;137;857830;-61
2021/05/03 05:46:52;;;;;;;0.72;0.51;;;;;;;;;;385875;137;865814;-61
2021/05/03 05:47:53;;;;;;;3.39;0.79;;;;;;;;;;387064;136;858956;-62
2021/05/03 05:48:55;;;;;;;1.50;0.56;;;;;;;;;;387159;138;859408;-60
2021/05/03 05:49:57;;;;;;;0.68;0.39;;;;;;;;;;388931;137;861679;-62
2021/05/03 05:50:58;;;;;;;1.38;0.61;;;;;;;;;;384262;135;859164;-62
2021/05/03 05:52:00;;;;;;;1.36;0.50;;;;;;;;;;383620;140;865920;-61
2021/05/03 05:53:02;;;;;;;0.56;0.53;;;;;;;;;;382567;134;858183;-61
2021/05/03 05:54:03;;;;;;;2.10;0.66;;;;;;;;;;371611;144;867187;-60
2021/05/03 05:55:05;;;;;;;1.29;0.69;;;;;;;;;;383070;140;860132;-60
2021/05/03 05:56:07;;;;;;;1.68;0.85;;;;;;;;;;382750;137;857811;-60
2021/05/03 05:57:09;;;;;;;0.99;0.73;;;;;;;;;;374663;142;857301;-60
2021/05/03 05:58:10;;;;;;;1.41;0.70;;;;;;;;;;376089;140;863676;-61
2021/05/03 05:59:12;;;;;;;0.88;0.61;;;;;;;;;;384027;134;863862;-60
2021/05/03 06:00:14;;;;;;;3.58;0.56;;;;;;;;;;383726;137;857035;-61
2021/05/03 06:01:16;;;;;;;2.42;0.70;;;;;;;;;;383488;139;857180;-60
2021/05/03 06:02:17;;;;;;;0.60;0.60;;;;;;;;;;381717;136;856234;-61
2021/05/03 06:03:19;;;;;;;0.82;0.61;;;;;;;;;;384092;139;856115;-61
2021/05/03 06:04:21;;;;;;;2.94;0.72;;;;;;;;;;382026;140;856469;-61
2021/05/03 06:05:23;;;;;;;0.72;0.47;;;;;;;;;;382296;139;857296;-60
2021/05/03 06:06:26;;;;;;;1.32;0.50;;;;;;;;;;382863;139;856245;-60
2021/05/03 06:07:27;;;;;;;0.84;0.60;;;;;;;;;;381292;138;856325;-62
2021/05/03 06:08:29;;;;;;;1.37;0.54;;;;;;;;;;382314;139;856619;-60
2021/05/03 06:09:31;;;;;;;1.33;0.59;;;;;;;;;;382424;139;863549;-61
2021/05/03 06:10:34;;;;;;;1.09;0.42;;;;;;;;;;382626;138;863835;-62
2021/05/03 06:13:28;;;;;;;1.08;0.56;;;;;;;11.60;48.20;99055.63;365682;141;969886;-61
2021/05/03 06:14:30;;;;;;;0.55;0.44;;;;;;;11.51;48.17;99038.56;365303;145;857789;-59
2021/05/03 06:15:32;;;;;;;1.60;0.56;;;;;;;11.48;47.58;99033.45;364524;145;858409;-59
2021/05/03 06:16:34;;;;;;;2.21;0.64;;;;;;;11.55;47.71;99040.17;363403;146;858836;-60
2021/05/03 06:17:36;;;;;;;3.58;0.66;;;;;;;11.72;48.21;99036.31;364839;146;859082;-59
2021/05/03 06:18:37;;;;;;;0.91;0.57;;;;;;;11.72;47.33;99036.31;365610;147;867056;-60
2021/05/03 06:19:39;;;;;;;0.93;0.63;;;;;;;11.64;48.07;99031.31;363995;146;865513;-59
2021/05/03 06:20:42;;;;;;;2.11;0.77;;;;;;;11.64;48.07;99031.31;366572;146;861060;-60
2021/05/03 06:21:44;;;;;;;2.43;0.50;;;;;;;11.62;47.64;99053.84;367187;146;864939;-59
2021/05/03 06:22:45;;;;;;;1.27;0.46;;;;;;;11.81;47.61;99051.62;362777;146;864994;-60
2021/05/03 06:23:47;;;;;;;1.09;0.45;;;;;;;11.77;47.57;99064.69;363417;147;864847;-59
2021/05/03 06:24:49;;;;;;;2.31;0.72;;;;;;;11.63;47.04;99058.14;363909;147;864814;-59
2021/05/03 06:25:51;;;;;;;0.92;0.54;;;;;;;11.73;47.39;99060.48;366252;146;865891;-61
2021/05/03 06:26:52;;;;;;;1.16;0.81;;;;;;;11.63;47.14;99052.95;365968;147;865775;-61
2021/05/03 06:27:55;;;;;;;1.29;0.70;;;;;;;11.83;47.28;99056.75;364488;147;860498;-61
2021/05/03 06:28:56;;;;;;;1.05;0.49;;;;;;;11.88;47.50;99038.48;364479;145;866904;-61
2021/05/03 06:29:58;;;;;;;1.74;0.61;;;;;;;11.68;47.00;99058.86;365422;146;858716;-61
2021/05/03 06:31:00;;;;;;;3.07;0.69;;;;;;;11.52;47.82;99058.41;363039;146;866056;-60
2021/05/03 06:32:03;;;;;;;1.39;0.64;;;;;;;11.64;46.63;99059.84;357094;147;857050;-60